Time;durP1;ratioP1;P1;durP2;ratioP2;P2;SDS_P1;SDS_P2;PMS_P1;PMS_P2;Temp;Humidity;BMP_temperature;BMP_pressure;BME280_temperature;BME280_humidity;BME280_pressure;Samples;Min_cycle;Max_cycle;Signal;HPM_P1;HPM_P2
2024/03/11 05:46:57;;;;;;;;;;;;;;;-1.94;78.64;101240.79;112953;1248;22416;-57
2024/03/11 05:49:36;;;;;;;;;;;;;;;-1.89;77.69;101244.70;112938;1248;23165;-49
2024/03/11 05:52:03;;;;;;;;;;;;;;;-1.85;76.59;101251.95;112872;1238;22424;-56
2024/03/11 05:54:32;;;;;;;;;;;;;;;-1.82;75.85;101254.23;112870;1240;22411;-56
2024/03/11 05:57:04;;;;;;;;;;;;;;;-1.76;75.42;101253.91;112925;1247;22338;-49
2024/03/11 05:59:31;;;;;;;;;;;;;;;-1.70;75.01;101252.59;112942;1238;23208;-50
2024/03/11 06:02:04;;;;;;;;;;;;;;;-1.65;74.51;101252.77;112876;1249;22440;-56
2024/03/11 06:04:35;;;;;;;;;;;;;;;-1.58;74.45;101252.33;112774;1245;22920;-54
2024/03/11 06:07:23;;;;;;;;;;;;;;;-1.48;73.87;101252.26;112984;1249;22367;-56
2024/03/11 06:09:53;;;;;;;;;;;;;;;-1.41;74.03;101244.90;112888;1247;22498;-56
2024/03/11 06:12:30;;;;;;;;;;;;;;;-1.30;73.34;101245.23;112879;1249;22364;-55
2024/03/11 06:15:03;;;;;;;;;;;;;;;-1.24;72.57;101245.89;112759;1249;23134;-55
2024/03/11 06:17:34;;;;;;;;;;;;;;;-1.18;72.61;101245.10;112895;1238;23105;-49
2024/03/11 06:20:13;;;;;;;;;;;;;;;-1.12;71.61;101243.90;112904;1249;22392;-55
2024/03/11 06:22:55;;;;;;;;;;;;;;;-1.06;71.21;101248.57;112613;1249;23217;-50
2024/03/11 06:25:25;;;;;;;;;;;;;;;-1.04;71.13;101246.68;112798;1249;23177;-55
2024/03/11 06:28:16;;;;;;;;;;;;;;;-0.97;71.35;101253.40;112774;1249;23185;-56
2024/03/11 06:31:49;;;;;;;;;;;;;;;-0.87;70.59;101248.39;112683;1238;22846;-56
2024/03/11 06:36:07;;;;;;;;;;;;;;;-0.76;69.51;101253.00;112787;1249;22523;-49
2024/03/11 06:40:31;;;;;;;;;;;;;;;-0.69;68.87;101262.12;112852;1245;22496;-49
2024/03/11 06:44:08;;;;;;;;;;;;;;;-0.55;67.91;101263.34;112747;1248;22468;-56
2024/03/11 06:46:57;;;;;;;;;;;;;;;-0.46;67.16;101262.98;112686;1242;22993;-55
2024/03/11 06:49:47;;;;;;;;;;;;;;;-0.40;66.19;101258.08;112649;1249;22414;-56
2024/03/11 06:52:20;;;;;;;;;;;;;;;-0.35;66.35;101259.87;112468;1249;22941;-57
2024/03/11 06:54:59;;;;;;;;;;;;;;;-0.29;65.69;101264.04;112479;1249;22838;-56
2024/03/11 06:57:52;;;;;;;;;;;;;;;-0.18;65.17;101265.02;112787;1249;23281;-50
2024/03/11 07:00:27;;;;;;;;;;;;;;;-0.07;63.92;101271.64;112663;1249;23203;-59
2024/03/11 07:03:00;;;;;;;;;;;;;;;-0.03;63.64;101273.80;112540;1249;22408;-53
2024/03/11 07:06:22;;;;;;;;;;;;;;;0.04;63.05;101282.03;106944;1249;7376373;-48
2024/03/11 07:10:16;;;;;;;;;;;;;;;0.10;62.09;101285.16;112877;1249;22410;-54
2024/03/11 07:13:14;;;;;;;;;;;;;;;0.18;61.47;101286.47;112551;1245;22354;-58
2024/03/11 07:15:46;;;;;;;;;;;;;;;0.26;60.42;101289.86;112662;1249;23807;-60
2024/03/11 07:18:19;;;;;;;;;;;;;;;0.35;59.04;101288.14;112580;1249;22488;-61
2024/03/11 07:20:48;;;;;;;;;;;;;;;0.41;57.95;101293.48;112639;1249;22435;-55
2024/03/11 07:23:29;;;;;;;;;;;;;;;0.45;56.92;101294.51;112619;1249;22430;-59
2024/03/11 07:26:02;;;;;;;;;;;;;;;0.49;56.66;101296.50;112772;1249;22735;-54
2024/03/11 07:28:48;;;;;;;;;;;;;;;0.58;56.46;101294.72;112641;1249;22379;-55
2024/03/11 07:35:43;;;;;;;;;;;;;;;0.79;54.70;101294.71;112800;1249;22498;-60
2024/03/11 07:38:27;;;;;;;;;;;;;;;0.89;54.09;101302.81;112715;1249;22404;-59
2024/03/11 07:41:06;;;;;;;;;;;;;;;0.94;52.57;101304.27;112900;1249;23682;-57
2024/03/11 07:43:40;;;;;;;;;;;;;;;0.99;51.77;101302.34;112771;1249;23117;-52
2024/03/11 07:46:09;;;;;;;;;;;;;;;1.06;51.19;101305.84;112770;1249;22517;-61
2024/03/11 07:48:39;;;;;;;;;;;;;;;1.14;50.81;101309.17;112866;1249;22405;-54
2024/03/11 07:56:15;;;;;;;;;;;;;;;1.35;50.50;101306.31;112799;1249;23658;-55
2024/03/11 07:58:53;;;;;;;;;;;;;;;1.46;50.36;101306.42;112551;1249;23199;-59
2024/03/11 08:01:50;;;;;;;;;;;;;;;1.62;49.30;101307.26;112480;1249;22568;-53
2024/03/11 08:04:32;;;;;;;;;;;;;;;1.76;49.32;101306.61;112516;1249;22401;-58
2024/03/11 08:07:06;;;;;;;;;;;;;;;1.90;48.39;101304.89;112709;1249;22395;-59
2024/03/11 08:10:50;;;;;;;;;;;;;;;1.98;46.91;101300.98;112072;1254;23651;-59
2024/03/11 08:13:23;;;;;;;;;;;;;;;2.02;46.77;101304.82;112185;1254;22937;-59
2024/03/11 08:15:55;;;;;;;;;;;;;;;2.06;45.90;101308.66;112168;1254;23138;-53
2024/03/11 08:18:31;;;;;;;;;;;;;;;2.12;45.35;101306.87;112279;1254;23202;-52
2024/03/11 08:21:00;;;;;;;;;;;;;;;2.17;45.39;101304.19;112181;1254;22538;-53
2024/03/11 08:23:43;;;;;;;;;;;;;;;2.25;45.21;101302.36;112225;1254;22386;-59
2024/03/11 08:26:24;;;;;;;;;;;;;;;2.34;44.42;101306.08;112255;1254;22401;-53
2024/03/11 08:29:02;;;;;;;;;;;;;;;2.44;43.68;101307.75;112261;1251;23199;-59
2024/03/11 08:31:40;;;;;;;;;;;;;;;2.50;42.84;101303.20;112271;1254;22437;-53
2024/03/11 08:34:18;;;;;;;;;;;;;;;2.57;43.00;101297.70;112228;1254;22925;-58
2024/03/11 08:36:51;;;;;;;;;;;;;;;2.64;43.14;101303.76;112110;1254;22714;-60
2024/03/11 08:39:30;;;;;;;;;;;;;;;2.72;42.44;101308.91;112314;1254;22456;-53
2024/03/11 08:42:11;;;;;;;;;;;;;;;2.79;41.88;101305.45;112170;1254;22439;-58
2024/03/11 08:45:27;;;;;;;;;;;;;;;2.90;41.94;101304.80;112077;1254;22457;-55
2024/03/11 08:52:50;;;;;;;;;;;;;;;3.11;42.05;101305.42;112518;1249;22843;-55
2024/03/11 08:56:30;;;;;;;;;;;;;;;3.26;42.21;101309.20;112553;1249;23281;-56
2024/03/11 09:06:41;;;;;;;;;;;;;;;3.64;41.14;101301.61;112656;1249;22369;-52
2024/03/11 09:09:29;;;;;;;;;;;;;;;3.67;40.04;101299.66;112477;1249;22371;-53
2024/03/11 09:16:19;;;;;;;;;;;;;;;3.81;40.59;101297.16;112662;1245;22544;-53
2024/03/11 09:18:55;;;;;;;;;;;;;;;3.95;40.36;101298.63;112783;1249;23080;-56
2024/03/11 09:21:29;;;;;;;;;;;;;;;4.03;40.04;101294.66;112478;1249;22768;-48
2024/03/11 09:24:03;;;;;;;;;;;;;;;4.06;39.74;101298.04;112517;1249;22404;-56
2024/03/11 09:26:40;;;;;;;;;;;;;;;4.05;39.44;101294.73;112631;1249;22375;-57
2024/03/11 09:29:15;;;;;;;;;;;;;;;4.01;39.53;101291.48;112474;1249;22386;-59
2024/03/11 09:31:53;;;;;;;;;;;;;;;4.04;39.50;101292.61;112646;1249;23394;-58
2024/03/11 09:34:22;;;;;;;;;;;;;;;4.19;39.81;101287.89;112505;1249;22431;-57
2024/03/11 09:36:52;;;;;;;;;;;;;;;4.35;40.02;101286.48;112526;1249;22413;-57
2024/03/11 09:39:24;;;;;;;;;;;;;;;4.42;39.14;101277.98;112679;1247;22411;-59
2024/03/11 09:41:55;;;;;;;;;;;;;;;4.42;38.92;101275.21;112357;1249;22401;-58
2024/03/11 09:48:00;;;;;;;;;;;;;;;4.38;38.71;101280.36;112601;1249;22980;-58
2024/03/11 09:50:43;;;;;;;;;;;;;;;4.47;39.53;101273.65;112515;1249;23219;-59
2024/03/11 09:53:18;;;;;;;;;;;;;;;4.56;39.87;101273.14;112296;1249;22825;-59
2024/03/11 10:06:45;;;;;;;;;;;;;;;4.92;38.86;101270.58;112232;1253;22782;-57
2024/03/11 10:14:28;;;;;;;;;;;;;;;5.21;39.31;101258.20;112241;1253;22457;-60
2024/03/11 10:39:01;;;;;;;;;;;;;;;7.52;33.89;101245.55;113242;1247;22402;-58
2024/03/11 11:14:11;;;;;;;;;;;;;;;12.66;25.36;101207.72;112886;1248;22438;-61
2024/03/11 11:20:38;;;;;;;;;;;;;;;13.22;24.65;101215.36;112924;1248;23333;-59
2024/03/11 11:23:35;;;;;;;;;;;;;;;13.57;24.26;101211.10;112789;1248;23334;-60
2024/03/11 11:26:41;;;;;;;;;;;;;;;13.91;22.76;101207.29;112850;1248;22393;-62
2024/03/11 11:29:29;;;;;;;;;;;;;;;13.95;22.51;101204.31;112923;1248;22918;-59
2024/03/11 11:33:03;;;;;;;;;;;;;;;13.92;22.66;101208.70;112835;1247;22409;-58
2024/03/11 11:36:36;;;;;;;;;;;;;;;13.76;22.41;101211.83;112847;1247;22385;-59
2024/03/11 11:39:27;;;;;;;;;;;;;;;13.73;22.77;101216.04;112868;1244;22840;-61
2024/03/11 11:42:41;;;;;;;;;;;;;;;13.69;22.57;101212.16;112659;1247;23056;-60
2024/03/11 11:45:30;;;;;;;;;;;;;;;13.35;22.70;101213.67;112736;1248;22464;-62
2024/03/11 11:48:21;;;;;;;;;;;;;;;12.99;22.69;101206.67;112592;1248;22325;-60
2024/03/11 11:51:01;;;;;;;;;;;;;;;12.53;22.94;101212.53;112527;1248;23833;-60
2024/03/11 11:53:41;;;;;;;;;;;;;;;12.11;23.61;101214.67;112680;1248;22491;-60
2024/03/11 11:56:24;;;;;;;;;;;;;;;11.66;23.82;101218.61;112526;1248;22869;-60
2024/03/11 11:59:08;;;;;;;;;;;;;;;11.37;24.16;101214.79;112710;1247;22879;-58
2024/03/11 12:05:39;;;;;;;;;;;;;;;10.99;24.89;101207.52;112801;1247;23168;-60
2024/03/11 12:08:19;;;;;;;;;;;;;;;10.73;24.62;101202.47;112910;1247;22383;-59
2024/03/11 12:11:03;;;;;;;;;;;;;;;10.49;24.83;101201.61;112843;1244;22952;-60
2024/03/11 12:13:31;;;;;;;;;;;;;;;10.48;25.61;101202.10;113165;1247;22415;-59
2024/03/11 12:16:30;;;;;;;;;;;;;;;10.38;25.46;101202.31;113140;1247;22435;-57
2024/03/11 12:19:09;;;;;;;;;;;;;;;10.22;25.81;101203.08;112912;1247;22957;-61
2024/03/11 12:22:20;;;;;;;;;;;;;;;10.19;25.69;101206.50;112902;1241;22316;-60
2024/03/11 12:24:58;;;;;;;;;;;;;;;10.15;25.61;101206.63;112853;1247;22396;-63
2024/03/11 12:30:53;;;;;;;;;;;;;;;10.02;25.23;101202.05;112936;1247;22733;-58
2024/03/11 12:33:44;;;;;;;;;;;;;;;10.04;25.33;101205.92;112849;1247;23341;-56
2024/03/11 12:36:14;;;;;;;;;;;;;;;10.07;25.52;101198.65;112762;1247;22730;-52
2024/03/11 12:38:55;;;;;;;;;;;;;;;9.98;25.60;101195.88;112980;1244;22964;-58
2024/03/11 12:41:36;;;;;;;;;;;;;;;9.96;25.53;101190.45;112949;1247;23138;-56
2024/03/11 12:44:19;;;;;;;;;;;;;;;10.07;25.16;101194.66;112896;1247;22619;-58
2024/03/11 12:46:53;;;;;;;;;;;;;;;10.34;25.45;101192.83;112995;1247;23195;-54
2024/03/11 12:49:23;;;;;;;;;;;;;;;10.68;24.80;101193.14;112988;1245;23569;-49
2024/03/11 12:52:36;;;;;;;;;;;;;;;10.92;24.41;101196.61;112839;1247;22471;-61
2024/03/11 12:57:09;;;;;;;;;;;;;;;10.85;24.56;101184.32;113225;1247;22400;-54
2024/03/11 13:00:00;;;;;;;;;;;;;;;10.92;24.51;101182.65;113145;1247;22703;-55
2024/03/11 13:06:18;;;;;;;;;;;;;;;10.39;24.23;101180.00;113057;1247;22969;-61
2024/03/11 13:08:52;;;;;;;;;;;;;;;10.28;24.52;101179.31;113011;1247;22426;-61
2024/03/11 13:11:24;;;;;;;;;;;;;;;10.49;24.66;101176.15;112743;1247;22426;-57
2024/03/11 13:14:21;;;;;;;;;;;;;;;10.54;24.44;101178.48;112920;1246;22386;31
2024/03/11 13:16:53;;;;;;;;;;;;;;;10.38;24.78;101172.32;112739;1248;22421;-61
2024/03/11 13:19:56;;;;;;;;;;;;;;;10.40;24.69;101171.13;112834;1246;22442;-62
2024/03/11 13:22:24;;;;;;;;;;;;;;;10.86;23.89;101167.56;112971;1246;22396;-61
2024/03/11 13:24:56;;;;;;;;;;;;;;;11.27;23.43;101161.93;112762;1246;22456;-57
2024/03/11 13:40:43;;;;;;;;;;;;;;;10.48;23.70;101161.29;113093;1247;23366;-60
2024/03/11 13:43:16;;;;;;;;;;;;;;;10.65;23.87;101154.02;112883;1247;22780;-60
2024/03/11 13:46:00;;;;;;;;;;;;;;;10.77;23.52;101150.69;112788;1249;23218;-61
2024/03/11 13:51:56;;;;;;;;;;;;;;;11.07;23.33;101154.36;113136;1245;22436;-57
2024/03/11 13:54:24;;;;;;;;;;;;;;;10.96;23.19;101146.73;113016;1248;22396;-57
2024/03/11 13:56:54;;;;;;;;;;;;;;;10.74;23.27;101146.30;112938;1248;22422;-61
2024/03/11 13:59:23;;;;;;;;;;;;;;;10.53;23.36;101137.30;112959;1248;23127;-58
2024/03/11 14:01:52;;;;;;;;;;;;;;;10.44;23.31;101137.52;112852;1248;22378;-58
2024/03/11 14:04:23;;;;;;;;;;;;;;;10.15;23.59;101145.10;112785;1248;22438;-61
2024/03/11 14:06:51;;;;;;;;;;;;;;;9.81;24.06;101145.77;112880;1248;22374;-59
2024/03/11 14:09:20;;;;;;;;;;;;;;;9.64;24.31;101135.20;112953;1248;22409;-57
2024/03/11 14:11:49;;;;;;;;;;;;;;;9.51;24.12;101138.82;112857;1248;22422;-61
2024/03/11 14:14:18;;;;;;;;;;;;;;;9.33;24.41;101138.13;112982;1248;22413;-58
2024/03/11 14:16:49;;;;;;;;;;;;;;;9.06;24.38;101139.03;112868;1248;22395;-57
2024/03/11 14:19:17;;;;;;;;;;;;;;;8.87;24.65;101140.03;112894;1248;22349;-58
2024/03/11 14:21:45;;;;;;;;;;;;;;;8.83;24.53;101137.70;112896;1248;22380;-59
2024/03/11 14:24:14;;;;;;;;;;;;;;;8.89;24.65;101135.02;112910;1248;23018;-58
2024/03/11 14:26:43;;;;;;;;;;;;;;;8.91;24.62;101125.84;112982;1248;22382;-57
2024/03/11 14:29:14;;;;;;;;;;;;;;;8.79;24.56;101124.21;112949;1248;22401;-58
2024/03/11 14:31:46;;;;;;;;;;;;;;;8.61;24.80;101124.17;112906;1248;22414;-60
2024/03/11 14:34:17;;;;;;;;;;;;;;;8.45;25.03;101124.19;112844;1248;23008;-58
2024/03/11 14:36:46;;;;;;;;;;;;;;;8.30;25.27;101118.61;112962;1248;22415;-57
2024/03/11 14:39:19;;;;;;;;;;;;;;;8.15;25.53;101118.79;112813;1248;23293;-57
2024/03/11 14:41:48;;;;;;;;;;;;;;;7.94;25.90;101118.64;112889;1248;23214;-61
2024/03/11 14:44:17;;;;;;;;;;;;;;;7.78;25.88;101121.23;112833;1248;22505;-57
2024/03/11 14:46:46;;;;;;;;;;;;;;;7.58;26.29;101118.64;112858;1248;22931;-59
2024/03/11 14:49:26;;;;;;;;;;;;;;;7.35;26.66;101118.58;112814;1248;22919;-56
2024/03/11 14:51:54;;;;;;;;;;;;;;;7.16;26.85;101122.40;113019;1248;22440;-57
2024/03/11 14:54:29;;;;;;;;;;;;;;;6.96;27.14;101123.78;112791;1248;22399;-60
2024/03/11 14:56:57;;;;;;;;;;;;;;;6.79;27.38;101127.96;112704;1248;23266;-56
2024/03/11 14:59:26;;;;;;;;;;;;;;;6.67;27.59;101131.44;112795;1248;22389;-60
2024/03/11 15:01:55;;;;;;;;;;;;;;;6.54;27.72;101127.59;112841;1248;22391;-56
2024/03/11 15:04:31;;;;;;;;;;;;;;;6.41;27.89;101128.44;112946;1248;22908;-56
2024/03/11 15:06:58;;;;;;;;;;;;;;;6.29;28.03;101131.02;112874;1248;22378;-59
2024/03/11 15:09:27;;;;;;;;;;;;;;;6.19;28.23;101131.36;112946;1248;22413;-60
2024/03/11 15:11:57;;;;;;;;;;;;;;;6.08;28.61;101133.13;112966;1248;22372;-59
2024/03/11 15:14:26;;;;;;;;;;;;;;;5.99;28.86;101139.58;112815;1248;22375;-56
